CG Hudson — NCWX — position and weather

sailwx.info

Track history (hours):
 
Tides and Currents Weather Stations Pressure Air Temp Water Temp Dewpoint Dewpoint Depression Visibility Wind Speed Wind Dir Waves Ship Positions

CG Hudson

Last reported at 2018-May-08 14:54 UTC. Time now 2018-Jun-25 00:42 UTC.
Position N 27°56' W 082°27'.
Warning: this ship's position is 47 days out of date.

Length 48 m; draft 2 m.

Type: Law enforcement. MMSI: 366999791.

Date/timePositionNaut miles runAvg speedWind from/ knotsBaromVisibWave heightAir tempDewpointWater temp
2018-May-08 14:54N 27°56' W 082°27'0 0.0
2018-May-08 14:30N 27°56' W 082°27'0 0.0
2018-May-08 14:00N 27°56' W 082°27'0 0.0
2018-May-08 13:30N 27°56' W 082°27'1 2.4
2018-May-08 12:59N 27°55' W 082°27'4 9.1
2018-May-08 12:30N 27°51' W 082°27'4 8.0
2018-May-08 12:01N 27°48' W 082°30'4 7.8
2018-May-08 11:29N 27°46' W 082°34'  
2018-May-03 21:00N 27°46' W 082°38'124 4.0
2018-May-02 14:05N 25°51' W 081°44'1 8.6
2018-May-02 14:00N 25°50' W 081°44'4 8.6
2018-May-02 13:30N 25°46' W 081°43'4 8.4
2018-May-02 13:00N 25°43' W 081°40'4 8.8
2018-May-02 12:30N 25°44' W 081°35'71 2.1
2018-May-01 01:46N 24°57' W 080°35'34 1.2
2018-Apr-29 20:20N 25°27' W 080°16'3 6.3
2018-Apr-29 19:51N 25°30' W 080°14'2 6.9
2018-Apr-29 19:30N 25°32' W 080°14'4 7.2
2018-Apr-29 18:59N 25°36' W 080°13'4 7.4
2018-Apr-29 18:30N 25°39' W 080°12'4 7.6
2018-Apr-29 18:00N 25°43' W 080°11'3 6.7
2018-Apr-29 17:30N 25°46' W 080°11'2 4.2
2018-Apr-29 17:00N 25°46' W 080°09'  
Track history (hours):
 
Tides and Currents Weather Stations Pressure Air Temp Water Temp Dewpoint Dewpoint Depression Visibility Wind Speed Wind Dir Waves Ship Positions

CG Hudson

Last reported at 2018-May-08 14:54 UTC. Time now 2018-Jun-25 00:42 UTC.
Position N 27°56' W 082°27'.
Warning: this ship's position is 47 days out of date.

Length 48 m; draft 2 m.

Type: Law enforcement. MMSI: 366999791.

Date/timePositionNaut miles runAvg speedWind from/ knotsBaromVisibWave heightAir tempDewpointWater temp
2018-May-08 14:54N 27°56' W 082°27'0 0.0
2018-May-08 14:30N 27°56' W 082°27'0 0.0
2018-May-08 14:00N 27°56' W 082°27'0 0.0
2018-May-08 13:30N 27°56' W 082°27'1 2.4
2018-May-08 12:59N 27°55' W 082°27'4 9.1
2018-May-08 12:30N 27°51' W 082°27'4 8.0
2018-May-08 12:01N 27°48' W 082°30'4 7.8
2018-May-08 11:29N 27°46' W 082°34'  
2018-May-03 21:00N 27°46' W 082°38'124 4.0
2018-May-02 14:05N 25°51' W 081°44'1 8.6
2018-May-02 14:00N 25°50' W 081°44'4 8.6
2018-May-02 13:30N 25°46' W 081°43'4 8.4
2018-May-02 13:00N 25°43' W 081°40'4 8.8
2018-May-02 12:30N 25°44' W 081°35'71 2.1
2018-May-01 01:46N 24°57' W 080°35'34 1.2
2018-Apr-29 20:20N 25°27' W 080°16'3 6.3
2018-Apr-29 19:51N 25°30' W 080°14'2 6.9
2018-Apr-29 19:30N 25°32' W 080°14'4 7.2
2018-Apr-29 18:59N 25°36' W 080°13'4 7.4
2018-Apr-29 18:30N 25°39' W 080°12'4 7.6
2018-Apr-29 18:00N 25°43' W 080°11'3 6.7
2018-Apr-29 17:30N 25°46' W 080°11'2 4.2
2018-Apr-29 17:00N 25°46' W 080°09'  

Dump ship's entire track history